createdAt,value
2022-12-31T00:00:01.281Z,22.4
2022-12-31T00:05:00.846Z,22.4
2022-12-31T00:10:01.105Z,22.4
2022-12-31T00:15:01.109Z,22.4
2022-12-31T00:20:00.847Z,22.4
2022-12-31T00:25:01.046Z,22.4
2022-12-31T00:30:04.614Z,22.4
2022-12-31T00:35:01.066Z,22.4
2022-12-31T00:40:01.201Z,22.4
2022-12-31T00:45:01.402Z,22.4
2022-12-31T00:50:01.515Z,22.4
2022-12-31T00:55:01.225Z,22.5
2022-12-31T01:00:00.633Z,22.4
2022-12-31T01:05:02.282Z,22.5
2022-12-31T01:10:01.208Z,22.4
2022-12-31T01:15:01.512Z,22.4
2022-12-31T01:20:01.102Z,22.5
2022-12-31T01:25:01.585Z,22.5
2022-12-31T01:30:01.355Z,22.4
2022-12-31T01:35:01.251Z,22.4
2022-12-31T01:40:01.101Z,22.4
2022-12-31T01:45:01.027Z,22.4
2022-12-31T01:55:01.250Z,22.4
2022-12-31T02:00:01.224Z,22.4
2022-12-31T02:05:01.011Z,22.5
2022-12-31T02:10:01.351Z,22.5
2022-12-31T02:15:01.073Z,22.5
2022-12-31T02:20:01.364Z,22.4
2022-12-31T02:25:01.695Z,22.5
2022-12-31T02:30:01.317Z,22.5
2022-12-31T02:35:01.556Z,22.4
2022-12-31T02:40:00.869Z,22.5
2022-12-31T02:45:01.376Z,22.5
2022-12-31T02:50:00.907Z,22.4
2022-12-31T02:55:01.692Z,22.4
2022-12-31T03:00:01.096Z,22.4
2022-12-31T03:05:00.819Z,22.4
2022-12-31T03:10:02.426Z,22.4
2022-12-31T03:15:00.850Z,22.4
2022-12-31T03:20:01.236Z,22.4
2022-12-31T03:25:00.834Z,22.4
2022-12-31T03:30:01.403Z,22.4
2022-12-31T03:35:00.864Z,22.4
2022-12-31T03:40:00.871Z,22.4
2022-12-31T03:45:01.321Z,22.4
2022-12-31T03:50:01.575Z,22.4
2022-12-31T03:55:00.827Z,22.4
2022-12-31T04:00:01.156Z,22.4
2022-12-31T04:05:00.812Z,22.4
2022-12-31T04:10:00.900Z,22.4
2022-12-31T04:15:01.985Z,22.4
2022-12-31T04:20:01.883Z,22.4
2022-12-31T04:25:01.103Z,22.4
2022-12-31T04:30:00.892Z,22.4
2022-12-31T04:35:01.030Z,22.4
2022-12-31T04:40:05.722Z,22.4
2022-12-31T04:45:01.860Z,22.5
2022-12-31T04:50:00.779Z,22.4
2022-12-31T04:55:00.882Z,22.4
2022-12-31T05:00:01.601Z,22.4
2022-12-31T05:05:00.839Z,22.4
2022-12-31T05:10:00.893Z,22.4
2022-12-31T05:15:00.992Z,22.4
2022-12-31T05:20:01.281Z,22.4
2022-12-31T05:25:00.928Z,22.4
2022-12-31T05:30:01.342Z,22.4
2022-12-31T05:35:01.522Z,22.4
2022-12-31T05:40:01.554Z,22.4
2022-12-31T05:45:00.530Z,22.4
2022-12-31T05:50:01.347Z,22.4
2022-12-31T05:55:01.259Z,22.4
2022-12-31T06:00:00.666Z,22.4
2022-12-31T06:05:00.836Z,22.4
2022-12-31T06:10:01.766Z,22.4
2022-12-31T06:15:00.831Z,22.4
2022-12-31T06:20:01.291Z,22.4
2022-12-31T06:25:00.772Z,22.4
2022-12-31T06:30:01.514Z,22.4
2022-12-31T06:35:01.154Z,22.4
2022-12-31T06:40:00.816Z,22.4
2022-12-31T06:45:01.583Z,22.4
2022-12-31T06:55:00.815Z,22.4
2022-12-31T07:00:00.813Z,22.4
2022-12-31T07:05:01.511Z,22.4
2022-12-31T07:10:00.900Z,22.4
2022-12-31T07:15:00.997Z,22.4
2022-12-31T07:20:00.769Z,22.4
2022-12-31T07:25:01.329Z,22.3
2022-12-31T07:30:01.124Z,22.4
2022-12-31T07:35:00.895Z,22.4
2022-12-31T07:40:01.089Z,22.4
2022-12-31T07:45:00.772Z,22.4
2022-12-31T07:50:00.880Z,22.4
2022-12-31T07:55:01.133Z,22.4
2022-12-31T08:00:00.820Z,22.4
2022-12-31T08:05:01.323Z,22.4
2022-12-31T08:10:01.310Z,22.4
2022-12-31T08:15:01.720Z,22.4
2022-12-31T08:20:01.336Z,22.4
2022-12-31T08:25:01.251Z,22.4
2022-12-31T08:30:01.275Z,22.4
2022-12-31T08:35:00.891Z,22.4
2022-12-31T08:40:02.025Z,22.4
2022-12-31T08:45:00.500Z,22.4
2022-12-31T08:50:00.902Z,22.4
2022-12-31T08:55:00.893Z,22.4
2022-12-31T09:00:01.030Z,22.4
2022-12-31T09:05:01.775Z,22.4
2022-12-31T09:10:01.268Z,22.4
2022-12-31T09:15:01.350Z,22.4
2022-12-31T09:20:01.972Z,22.5
2022-12-31T09:25:01.516Z,22.5
2022-12-31T09:30:01.924Z,22.5
2022-12-31T09:35:01.892Z,22.5
2022-12-31T09:40:02.395Z,22.5
2022-12-31T09:45:01.858Z,22.5
2022-12-31T09:50:04.970Z,22.5
2022-12-31T09:55:01.719Z,22.5
2022-12-31T10:00:01.197Z,22.5
2022-12-31T10:05:01.075Z,22.5
2022-12-31T10:10:01.264Z,22.5
2022-12-31T10:15:01.117Z,22.6
2022-12-31T10:20:01.932Z,22.6
2022-12-31T10:25:00.979Z,22.6
2022-12-31T10:30:03.544Z,22.6
2022-12-31T10:35:01.006Z,22.6
2022-12-31T10:40:03.597Z,22.6
2022-12-31T10:45:01.620Z,22.6
2022-12-31T10:50:01.510Z,22.6
2022-12-31T10:55:01.466Z,22.7
2022-12-31T11:00:02.069Z,22.6
2022-12-31T11:05:02.146Z,22.7
2022-12-31T11:10:01.060Z,22.7
2022-12-31T11:15:01.464Z,22.7
2022-12-31T11:20:01.313Z,22.7
2022-12-31T11:25:01.119Z,22.8
2022-12-31T11:30:01.506Z,22.7
2022-12-31T11:35:01.255Z,22.8
2022-12-31T11:40:00.971Z,22.8
2022-12-31T11:45:01.522Z,22.7
2022-12-31T11:50:01.136Z,22.7
2022-12-31T11:55:01.529Z,22.7
2022-12-31T12:00:01.224Z,22.8
2022-12-31T12:05:06.486Z,22.7
2022-12-31T12:10:01.044Z,22.8
2022-12-31T12:15:01.052Z,22.7
2022-12-31T12:20:01.022Z,22.7
2022-12-31T12:25:01.184Z,22.7
2022-12-31T12:30:01.292Z,22.7
2022-12-31T12:35:01.573Z,22.7
2022-12-31T12:40:00.457Z,22.7
2022-12-31T12:45:02.742Z,22.7
2022-12-31T12:50:01.577Z,22.8
2022-12-31T12:55:01.030Z,22.7
2022-12-31T13:00:01.557Z,22.8
2022-12-31T13:05:01.051Z,22.7
2022-12-31T13:10:01.369Z,22.8
2022-12-31T13:15:01.117Z,22.8
2022-12-31T13:20:01.555Z,22.8
2022-12-31T13:25:01.058Z,22.8
2022-12-31T13:30:01.118Z,22.7
2022-12-31T13:35:01.030Z,22.7
2022-12-31T13:40:01.430Z,22.7
2022-12-31T13:45:01.857Z,22.7
2022-12-31T13:50:01.962Z,22.6
2022-12-31T13:55:01.896Z,22.6
2022-12-31T14:00:01.446Z,22.5
2022-12-31T14:05:01.953Z,22.5
2022-12-31T14:10:01.743Z,22.5
2022-12-31T14:15:00.496Z,22.5
2022-12-31T14:20:01.053Z,22.4
2022-12-31T14:25:01.244Z,22.4
2022-12-31T14:30:01.123Z,22.3
2022-12-31T14:35:01.934Z,22.3
2022-12-31T14:40:01.115Z,22.3
2022-12-31T14:45:01.295Z,22.0
2022-12-31T14:50:01.093Z,22.0
2022-12-31T14:55:01.496Z,22.0
2022-12-31T15:00:01.013Z,22.0
2022-12-31T15:05:01.424Z,22.1
2022-12-31T15:10:01.610Z,22.1
2022-12-31T15:15:02.018Z,22.1
2022-12-31T15:20:01.086Z,22.2
2022-12-31T15:25:01.119Z,22.2
2022-12-31T15:30:01.176Z,22.2
2022-12-31T15:35:01.044Z,22.3
2022-12-31T15:40:01.042Z,22.3
2022-12-31T15:45:01.040Z,22.4
2022-12-31T15:50:00.939Z,22.4
2022-12-31T15:55:01.187Z,22.4
2022-12-31T16:00:01.283Z,22.4
2022-12-31T16:05:00.782Z,22.4
2022-12-31T16:10:00.828Z,22.4
2022-12-31T16:15:00.853Z,22.4
2022-12-31T16:20:01.260Z,22.5
2022-12-31T16:25:31.846Z,22.5
2022-12-31T16:30:01.260Z,22.5
2022-12-31T16:35:01.001Z,22.5
2022-12-31T16:40:00.995Z,22.5
2022-12-31T16:45:00.806Z,22.5
2022-12-31T16:50:01.187Z,22.5
2022-12-31T16:55:01.069Z,22.5
2022-12-31T17:00:00.937Z,22.5
2022-12-31T17:05:01.231Z,22.5
2022-12-31T17:10:01.313Z,22.5
2022-12-31T17:15:00.488Z,22.5
2022-12-31T17:20:00.793Z,22.5
2022-12-31T17:25:00.863Z,22.5
2022-12-31T17:35:01.110Z,22.5
2022-12-31T17:40:17.331Z,22.5
2022-12-31T17:45:00.869Z,22.6
2022-12-31T17:50:01.571Z,22.5
2022-12-31T17:55:00.824Z,22.5
2022-12-31T18:00:02.158Z,22.5
2022-12-31T18:05:00.868Z,22.5
2022-12-31T18:10:00.877Z,22.5
2022-12-31T18:15:00.850Z,22.5
2022-12-31T18:20:05.019Z,22.5
2022-12-31T18:25:02.595Z,22.5
2022-12-31T18:30:04.664Z,22.5
2022-12-31T18:35:00.805Z,22.5
2022-12-31T18:40:00.845Z,22.5
2022-12-31T18:45:01.463Z,22.5
2022-12-31T18:50:00.877Z,22.5
2022-12-31T18:55:00.829Z,22.5
2022-12-31T19:00:00.856Z,22.5
2022-12-31T19:05:01.137Z,22.5
2022-12-31T19:10:01.106Z,22.5
2022-12-31T19:15:01.173Z,22.5
2022-12-31T19:20:01.062Z,22.5
2022-12-31T19:25:00.518Z,22.5
2022-12-31T19:30:00.787Z,22.5
2022-12-31T19:35:01.042Z,22.5
2022-12-31T19:40:00.971Z,22.5
2022-12-31T19:45:00.799Z,22.5
2022-12-31T19:50:01.904Z,22.5
2022-12-31T19:55:00.784Z,22.5
2022-12-31T20:00:00.810Z,22.5
2022-12-31T20:05:00.825Z,22.5
2022-12-31T20:10:01.099Z,22.5
2022-12-31T20:15:01.278Z,22.5
2022-12-31T20:20:00.903Z,22.5
2022-12-31T20:25:01.040Z,22.5
2022-12-31T20:30:00.804Z,22.5
2022-12-31T20:35:01.121Z,22.5
2022-12-31T20:40:01.016Z,22.5
2022-12-31T20:45:01.114Z,22.5
2022-12-31T20:50:11.305Z,22.5
2022-12-31T20:55:01.539Z,22.5
2022-12-31T21:00:00.831Z,22.5
2022-12-31T21:05:01.307Z,22.5
2022-12-31T21:10:00.842Z,22.5
2022-12-31T21:15:01.109Z,22.5
2022-12-31T21:20:01.024Z,22.5
2022-12-31T21:25:00.872Z,22.5
2022-12-31T21:35:39.987Z,22.5
2022-12-31T21:40:00.895Z,22.5
2022-12-31T21:45:01.120Z,22.5
2022-12-31T21:50:01.098Z,22.5
2022-12-31T21:55:00.948Z,22.5
2022-12-31T22:00:24.286Z,22.5
2022-12-31T22:05:02.781Z,22.5
2022-12-31T22:10:00.797Z,22.5
2022-12-31T22:15:15.292Z,22.5
2022-12-31T22:20:28.899Z,22.5
2022-12-31T22:25:00.522Z,22.5
2022-12-31T22:30:01.022Z,22.5
2022-12-31T22:35:01.256Z,22.5
2022-12-31T22:40:00.973Z,22.5
2022-12-31T22:45:01.890Z,22.5
2022-12-31T22:50:01.259Z,22.5
2022-12-31T22:55:01.252Z,22.5
2022-12-31T23:00:01.497Z,22.5
2022-12-31T23:05:14.702Z,22.5
2022-12-31T23:10:01.891Z,22.5
2022-12-31T23:15:01.241Z,22.5
2022-12-31T23:20:00.987Z,22.5
2022-12-31T23:25:01.115Z,22.4
2022-12-31T23:30:01.286Z,22.4
2022-12-31T23:35:04.652Z,22.4
2022-12-31T23:40:01.262Z,22.5
2022-12-31T23:45:01.574Z,22.5
2022-12-31T23:50:02.155Z,22.5
2022-12-31T23:55:01.039Z,22.5
